createdAt,value
2017-07-17T00:01:07.529Z,21.5
2017-07-17T00:02:15.616Z,21.5
2017-07-17T00:03:23.704Z,21.6
2017-07-17T00:04:31.790Z,21.5
2017-07-17T00:05:39.877Z,21.5
2017-07-17T00:06:47.967Z,21.5
2017-07-17T00:07:56.056Z,21.5
2017-07-17T00:09:04.145Z,21.5
2017-07-17T00:10:12.231Z,21.4
2017-07-17T00:11:20.382Z,21.5
2017-07-17T00:12:28.407Z,21.5
2017-07-17T00:13:36.495Z,21.5
2017-07-17T00:14:44.581Z,21.5
2017-07-17T00:15:52.668Z,21.5
2017-07-17T00:17:00.758Z,21.5
2017-07-17T00:18:08.845Z,21.4
2017-07-17T00:19:16.932Z,21.5
2017-07-17T00:20:25.018Z,21.4
2017-07-17T00:21:33.104Z,21.5
2017-07-17T00:22:41.192Z,21.4
2017-07-17T00:23:49.282Z,21.4
2017-07-17T00:24:57.368Z,21.4
2017-07-17T00:26:05.482Z,21.4
2017-07-17T00:27:13.544Z,21.4
2017-07-17T00:28:21.687Z,21.5
2017-07-17T00:29:29.719Z,21.4
2017-07-17T00:30:37.807Z,21.4
2017-07-17T00:31:45.893Z,21.4
2017-07-17T00:32:53.982Z,21.4
2017-07-17T00:34:02.066Z,21.4
2017-07-17T00:35:10.156Z,21.4
2017-07-17T00:36:18.242Z,21.3
2017-07-17T00:37:26.334Z,21.4
2017-07-17T00:38:34.417Z,21.4
2017-07-17T00:39:42.506Z,21.4
2017-07-17T00:40:50.593Z,21.4
2017-07-17T00:41:58.680Z,21.4
2017-07-17T00:43:06.769Z,21.3
2017-07-17T00:44:14.854Z,21.4
2017-07-17T00:45:22.979Z,21.3
2017-07-17T00:46:31.030Z,21.4
2017-07-17T00:47:39.117Z,21.4
2017-07-17T00:48:47.206Z,21.3
2017-07-17T00:49:55.292Z,21.3
2017-07-17T00:51:03.376Z,21.4
2017-07-17T00:52:11.464Z,21.3
2017-07-17T00:53:19.551Z,21.3
2017-07-17T00:54:27.637Z,21.4
2017-07-17T00:55:35.728Z,21.4
2017-07-17T00:56:43.815Z,21.3
2017-07-17T00:57:51.907Z,21.4
2017-07-17T00:58:59.994Z,21.3
2017-07-17T01:00:08.079Z,21.4
2017-07-17T01:01:16.171Z,21.4
2017-07-17T01:02:24.319Z,21.3
2017-07-17T01:03:32.349Z,21.3
2017-07-17T01:04:40.444Z,21.3
2017-07-17T01:05:48.532Z,21.3
2017-07-17T01:06:56.618Z,21.3
2017-07-17T01:08:04.706Z,21.3
2017-07-17T01:09:12.803Z,21.3
2017-07-17T01:10:20.890Z,21.3
2017-07-17T01:11:28.975Z,21.4
2017-07-17T01:12:37.062Z,21.3
2017-07-17T01:13:45.148Z,21.3
2017-07-17T01:14:53.237Z,21.3
2017-07-17T01:16:01.322Z,21.3
2017-07-17T01:17:09.411Z,21.3
2017-07-17T01:18:17.500Z,21.3
2017-07-17T01:19:25.601Z,21.2
2017-07-17T01:20:33.673Z,21.3
2017-07-17T01:21:41.761Z,21.2
2017-07-17T01:22:49.846Z,21.3
2017-07-17T01:23:57.933Z,21.4
2017-07-17T01:25:06.021Z,21.3
2017-07-17T01:26:14.108Z,21.3
2017-07-17T01:27:22.198Z,21.3
2017-07-17T01:28:30.283Z,21.3
2017-07-17T01:29:38.370Z,21.3
2017-07-17T01:30:46.460Z,21.3
2017-07-17T01:31:54.545Z,21.3
2017-07-17T01:33:02.631Z,21.3
2017-07-17T01:34:10.720Z,21.3
2017-07-17T01:35:18.805Z,21.2
2017-07-17T01:36:26.934Z,21.2
2017-07-17T01:37:34.980Z,21.2
2017-07-17T01:38:43.067Z,21.3
2017-07-17T01:39:51.154Z,21.2
2017-07-17T01:40:59.241Z,21.2
2017-07-17T01:42:07.329Z,21.1
2017-07-17T01:43:15.414Z,21.2
2017-07-17T01:44:23.502Z,21.2
2017-07-17T01:45:31.589Z,21.2
2017-07-17T01:46:39.676Z,21.2
2017-07-17T01:47:47.764Z,21.1
2017-07-17T01:48:55.852Z,21.1
2017-07-17T01:50:03.938Z,21.1
2017-07-17T01:51:12.023Z,21.2
2017-07-17T01:52:20.114Z,21.1
2017-07-17T01:53:28.300Z,21.2
2017-07-17T01:54:36.287Z,21.1
2017-07-17T01:55:44.375Z,21.2
2017-07-17T01:56:52.462Z,21.2
2017-07-17T01:58:00.549Z,21.2
2017-07-17T01:59:08.644Z,21.2
2017-07-17T02:00:16.727Z,21.2
2017-07-17T02:01:24.816Z,21.1
2017-07-17T02:02:32.902Z,21.1
2017-07-17T02:03:40.988Z,21.0
2017-07-17T02:04:49.077Z,21.1
2017-07-17T02:05:57.164Z,21.1
2017-07-17T02:07:05.252Z,21.1
2017-07-17T02:08:13.338Z,21.0
2017-07-17T02:09:21.424Z,21.1
2017-07-17T02:10:29.555Z,21.0
2017-07-17T02:11:37.601Z,21.0
2017-07-17T02:12:45.688Z,21.1
2017-07-17T02:13:53.775Z,21.0
2017-07-17T02:15:01.858Z,21.0
2017-07-17T02:16:09.949Z,21.0
2017-07-17T02:17:18.039Z,21.0
2017-07-17T02:18:26.125Z,21.1
2017-07-17T02:19:34.212Z,21.1
2017-07-17T02:20:42.300Z,21.0
2017-07-17T02:21:50.384Z,21.1
2017-07-17T02:22:58.471Z,21.1
2017-07-17T02:24:06.583Z,21.1
2017-07-17T02:25:14.646Z,21.0
2017-07-17T02:26:22.743Z,21.1
2017-07-17T02:27:30.890Z,21.1
2017-07-17T02:28:38.917Z,21.1
2017-07-17T02:29:47.002Z,21.1
2017-07-17T02:30:55.088Z,21.1
2017-07-17T02:32:03.176Z,21.1
2017-07-17T02:33:11.263Z,21.0
2017-07-17T02:34:19.352Z,21.1
2017-07-17T02:35:27.437Z,21.0
2017-07-17T02:36:35.525Z,21.0
2017-07-17T02:37:43.613Z,21.0
2017-07-17T02:38:51.699Z,21.1
2017-07-17T02:39:59.788Z,21.0
2017-07-17T02:41:07.872Z,21.0
2017-07-17T02:42:15.956Z,21.1
2017-07-17T02:43:24.046Z,20.9
2017-07-17T02:44:32.191Z,21.0
2017-07-17T02:45:40.220Z,21.0
2017-07-17T02:46:48.331Z,21.0
2017-07-17T02:47:56.397Z,21.0
2017-07-17T02:49:04.483Z,21.0
2017-07-17T02:50:12.566Z,20.9
2017-07-17T02:51:20.662Z,21.0
2017-07-17T02:52:28.749Z,20.9
2017-07-17T02:53:36.835Z,21.0
2017-07-17T02:54:44.926Z,21.0
2017-07-17T02:55:53.012Z,21.0
2017-07-17T02:57:01.098Z,21.0
2017-07-17T02:58:09.184Z,21.0
2017-07-17T02:59:17.270Z,20.9
2017-07-17T03:00:25.358Z,21.0
2017-07-17T03:01:33.453Z,20.9
2017-07-17T03:02:41.533Z,21.0
2017-07-17T03:03:49.621Z,20.9
2017-07-17T03:04:57.707Z,20.9
2017-07-17T03:06:05.814Z,20.9
2017-07-17T03:07:13.879Z,20.9
2017-07-17T03:08:21.965Z,20.9
2017-07-17T03:09:30.052Z,21.0
2017-07-17T03:10:38.139Z,20.9
2017-07-17T03:11:46.227Z,20.9
2017-07-17T03:12:54.320Z,20.9
2017-07-17T03:14:02.406Z,20.9
2017-07-17T03:15:10.495Z,20.9
2017-07-17T03:16:18.581Z,20.9
2017-07-17T03:17:26.666Z,20.9
2017-07-17T03:18:34.824Z,20.9
2017-07-17T03:19:42.841Z,20.9
2017-07-17T03:20:50.928Z,20.9
2017-07-17T03:21:59.017Z,20.9
2017-07-17T03:23:07.105Z,20.9
2017-07-17T03:24:15.192Z,20.9
2017-07-17T03:25:23.279Z,20.9
2017-07-17T03:26:31.365Z,20.9
2017-07-17T03:27:39.452Z,20.8
2017-07-17T03:28:47.538Z,20.9
2017-07-17T03:29:55.624Z,20.9
2017-07-17T03:31:03.713Z,20.9
2017-07-17T03:32:11.801Z,20.8
2017-07-17T03:33:19.886Z,20.8
2017-07-17T03:34:27.974Z,20.8
2017-07-17T03:35:36.159Z,20.8
2017-07-17T03:36:44.145Z,20.8
2017-07-17T03:37:52.233Z,20.8
2017-07-17T03:39:00.319Z,20.8
2017-07-17T03:40:08.408Z,20.8
2017-07-17T03:41:16.496Z,20.8
2017-07-17T03:42:24.584Z,20.8
2017-07-17T03:43:32.671Z,20.8
2017-07-17T03:44:40.768Z,20.8
2017-07-17T03:45:48.853Z,20.8
2017-07-17T03:46:56.940Z,20.9
2017-07-17T03:48:05.028Z,20.9
2017-07-17T03:49:13.112Z,20.8
2017-07-17T03:50:21.200Z,20.8
2017-07-17T03:51:29.288Z,20.8
2017-07-17T03:52:37.472Z,20.8
2017-07-17T03:53:45.463Z,20.8
2017-07-17T03:54:53.548Z,20.8
2017-07-17T03:56:01.635Z,20.9
2017-07-17T03:57:09.722Z,20.8
2017-07-17T03:58:17.811Z,20.8
2017-07-17T03:59:25.899Z,20.8
2017-07-17T04:00:33.981Z,20.8
2017-07-17T04:01:42.072Z,20.8
2017-07-17T04:02:50.159Z,20.8
2017-07-17T04:03:58.245Z,20.8
2017-07-17T04:05:06.339Z,20.8
2017-07-17T04:06:14.445Z,20.9
2017-07-17T04:07:22.506Z,20.8
2017-07-17T04:08:30.593Z,20.7
2017-07-17T04:09:38.751Z,20.8
2017-07-17T04:10:46.769Z,20.8
2017-07-17T04:11:54.855Z,20.8
2017-07-17T04:13:02.942Z,20.7
2017-07-17T04:14:11.027Z,20.7
2017-07-17T04:15:19.114Z,20.8
2017-07-17T04:16:27.208Z,20.7
2017-07-17T04:17:35.295Z,20.7
2017-07-17T04:18:43.422Z,20.8
2017-07-17T04:19:51.475Z,20.7
2017-07-17T04:20:59.558Z,20.7
2017-07-17T04:22:07.642Z,20.7
2017-07-17T04:23:15.729Z,20.7
2017-07-17T04:24:23.817Z,20.8
2017-07-17T04:25:31.903Z,20.7
2017-07-17T04:26:39.994Z,20.7
2017-07-17T04:26:40.007Z,20.7
2017-07-17T04:27:48.078Z,20.7
2017-07-17T04:28:56.168Z,20.8
2017-07-17T04:30:04.252Z,20.8
2017-07-17T04:31:12.339Z,20.7
2017-07-17T04:32:20.426Z,20.7
2017-07-17T04:33:28.509Z,20.7
2017-07-17T04:34:36.597Z,20.7
2017-07-17T04:35:44.688Z,20.7
2017-07-17T04:36:53.172Z,20.7
2017-07-17T04:38:00.859Z,20.7
2017-07-17T04:39:08.948Z,20.7
2017-07-17T04:40:17.034Z,20.7
2017-07-17T04:41:25.124Z,20.7
2017-07-17T04:42:33.212Z,20.8
2017-07-17T04:43:41.300Z,20.7
2017-07-17T04:44:49.391Z,20.8
2017-07-17T04:45:57.477Z,20.7
2017-07-17T04:47:05.565Z,20.7
2017-07-17T04:48:13.653Z,20.7
2017-07-17T04:49:21.738Z,20.8
2017-07-17T04:50:29.825Z,20.7
2017-07-17T04:51:37.909Z,20.7
2017-07-17T04:52:46.280Z,20.7
2017-07-17T04:53:54.085Z,20.7
2017-07-17T04:55:02.172Z,20.8
2017-07-17T04:56:10.263Z,20.7
2017-07-17T04:57:18.349Z,20.7
2017-07-17T04:58:26.437Z,20.7
2017-07-17T04:59:34.525Z,20.7
2017-07-17T05:00:42.609Z,20.7
2017-07-17T05:01:50.696Z,20.6
2017-07-17T05:02:58.781Z,20.7
2017-07-17T05:04:06.869Z,20.6
2017-07-17T05:05:14.957Z,20.6
2017-07-17T05:06:23.044Z,20.7
2017-07-17T05:07:31.160Z,20.7
2017-07-17T05:08:39.219Z,20.7
2017-07-17T05:09:47.309Z,20.7
2017-07-17T05:10:55.396Z,20.7
2017-07-17T05:12:03.485Z,20.7
2017-07-17T05:13:11.570Z,20.7
2017-07-17T05:14:19.710Z,20.7
2017-07-17T05:15:27.743Z,20.7
2017-07-17T05:16:35.831Z,20.7
2017-07-17T05:17:43.915Z,20.7
2017-07-17T05:18:53.749Z,20.7
2017-07-17T05:20:00.098Z,20.7
2017-07-17T05:21:08.188Z,20.7
2017-07-17T05:22:16.276Z,20.7
2017-07-17T05:23:24.365Z,20.7
2017-07-17T05:24:32.450Z,20.7
2017-07-17T05:25:40.536Z,20.7
2017-07-17T05:26:48.625Z,20.7
2017-07-17T05:27:56.710Z,20.8
2017-07-17T05:29:04.800Z,20.8
2017-07-17T05:30:12.887Z,20.6
2017-07-17T05:31:20.971Z,20.7
2017-07-17T05:32:29.061Z,20.7
2017-07-17T05:33:37.165Z,20.7
2017-07-17T05:34:45.234Z,20.8
2017-07-17T05:35:53.322Z,20.8
2017-07-17T05:37:01.407Z,20.8
2017-07-17T05:38:09.497Z,20.8
2017-07-17T05:39:17.582Z,20.8
2017-07-17T05:40:25.670Z,20.7
2017-07-17T05:41:33.759Z,20.7
2017-07-17T05:42:41.844Z,20.7
2017-07-17T05:43:49.932Z,20.8
2017-07-17T05:44:58.017Z,20.7
2017-07-17T05:46:06.103Z,20.6
2017-07-17T05:47:14.192Z,20.6
2017-07-17T05:48:22.283Z,20.7
2017-07-17T05:49:30.368Z,20.7
2017-07-17T05:50:38.457Z,20.7
2017-07-17T05:51:46.543Z,20.7
2017-07-17T05:52:54.632Z,20.7
2017-07-17T05:54:02.718Z,20.7
2017-07-17T05:55:10.804Z,20.7
2017-07-17T05:56:18.891Z,20.7
2017-07-17T05:57:26.979Z,20.8
2017-07-17T05:58:35.066Z,20.7
2017-07-17T05:59:43.152Z,20.7
2017-07-17T06:00:51.242Z,20.8
2017-07-17T06:01:59.328Z,20.7
2017-07-17T06:03:07.416Z,20.7
2017-07-17T06:04:15.503Z,20.7
2017-07-17T06:05:23.589Z,20.7
2017-07-17T06:06:31.673Z,20.7
2017-07-17T06:07:39.763Z,20.7
2017-07-17T06:08:47.850Z,20.7
2017-07-17T06:09:55.937Z,20.7
2017-07-17T06:11:04.023Z,20.7
2017-07-17T06:12:12.112Z,20.7
2017-07-17T06:13:20.196Z,20.7
2017-07-17T06:14:28.284Z,20.7
2017-07-17T06:15:36.371Z,20.7
2017-07-17T06:16:44.459Z,20.7
2017-07-17T06:17:52.545Z,20.7
2017-07-17T06:19:00.640Z,20.7
2017-07-17T06:20:08.727Z,20.7
2017-07-17T06:21:16.815Z,20.7
2017-07-17T06:22:24.900Z,20.7
2017-07-17T06:23:32.986Z,20.7
2017-07-17T06:24:41.072Z,20.7
2017-07-17T06:25:49.163Z,20.7
2017-07-17T06:26:57.250Z,20.7
2017-07-17T06:28:05.585Z,20.7
2017-07-17T06:29:13.423Z,20.7
2017-07-17T06:30:21.512Z,20.7
2017-07-17T06:31:29.596Z,20.7
2017-07-17T06:32:37.684Z,20.7
2017-07-17T06:33:45.771Z,20.7
2017-07-17T06:34:53.856Z,20.7
2017-07-17T06:36:01.944Z,20.7
2017-07-17T06:37:10.032Z,20.8
2017-07-17T06:38:18.119Z,20.7
2017-07-17T06:39:26.207Z,20.6
2017-07-17T06:40:34.295Z,20.7
2017-07-17T06:41:42.381Z,20.6
2017-07-17T06:42:50.466Z,20.7
2017-07-17T06:43:58.554Z,20.7
2017-07-17T06:45:06.641Z,20.7
2017-07-17T06:46:14.730Z,20.7
2017-07-17T06:47:22.816Z,20.7
2017-07-17T06:48:30.902Z,20.7
2017-07-17T06:49:39.022Z,20.7
2017-07-17T06:50:47.078Z,20.6
2017-07-17T06:51:55.165Z,20.7
2017-07-17T06:53:03.252Z,20.7
2017-07-17T06:54:11.336Z,20.7
2017-07-17T06:55:19.425Z,20.7
2017-07-17T06:56:27.511Z,20.7
2017-07-17T06:57:35.599Z,20.7
2017-07-17T06:58:43.686Z,20.7
2017-07-17T06:59:51.774Z,20.7
2017-07-17T07:00:59.862Z,20.7
2017-07-17T07:02:07.950Z,20.8
2017-07-17T07:03:16.034Z,20.8
2017-07-17T07:04:24.125Z,20.9
2017-07-17T07:05:32.209Z,20.8
2017-07-17T07:06:40.297Z,20.9
2017-07-17T07:07:48.386Z,20.8
2017-07-17T07:08:56.472Z,20.7
2017-07-17T07:10:04.563Z,20.8
2017-07-17T07:11:12.648Z,20.8
2017-07-17T07:12:20.732Z,20.8
2017-07-17T07:13:28.821Z,20.8
2017-07-17T07:14:36.934Z,20.8
2017-07-17T07:15:44.997Z,20.8
2017-07-17T07:16:53.084Z,20.8
2017-07-17T07:18:01.170Z,20.9
2017-07-17T07:19:09.260Z,20.8
2017-07-17T07:20:17.343Z,20.8
2017-07-17T07:21:25.430Z,20.8
2017-07-17T07:22:33.517Z,20.8
2017-07-17T07:23:41.606Z,20.8
2017-07-17T07:24:49.691Z,20.8
2017-07-17T07:25:57.779Z,20.9
2017-07-17T07:27:05.876Z,20.8
2017-07-17T07:28:13.954Z,20.9
2017-07-17T07:29:22.042Z,20.8
2017-07-17T07:30:30.128Z,20.9
2017-07-17T07:31:38.216Z,20.9
2017-07-17T07:32:46.303Z,20.9
2017-07-17T07:33:54.394Z,20.9
2017-07-17T07:35:02.482Z,20.9
2017-07-17T07:36:10.568Z,20.9
2017-07-17T07:37:18.656Z,20.9
2017-07-17T07:38:26.752Z,20.9
2017-07-17T07:39:34.839Z,20.9
2017-07-17T07:40:42.925Z,20.9
2017-07-17T07:41:51.028Z,20.9
2017-07-17T07:42:59.101Z,20.9
2017-07-17T07:44:07.187Z,20.9
2017-07-17T07:45:15.274Z,21.0
2017-07-17T07:46:23.365Z,21.0
2017-07-17T07:47:31.451Z,21.0
2017-07-17T07:48:39.536Z,20.9
2017-07-17T07:49:47.632Z,20.9
2017-07-17T07:50:55.720Z,21.1
2017-07-17T07:52:03.805Z,21.0
2017-07-17T07:53:11.895Z,21.0
2017-07-17T07:54:19.981Z,21.1
2017-07-17T07:55:28.067Z,21.0
2017-07-17T07:56:36.155Z,21.1
2017-07-17T07:57:44.243Z,21.0
2017-07-17T07:58:52.332Z,21.0
2017-07-17T08:00:00.420Z,21.0
2017-07-17T08:01:08.504Z,21.0
2017-07-17T08:02:16.591Z,21.1
2017-07-17T08:03:24.683Z,21.1
2017-07-17T08:04:32.769Z,21.1
2017-07-17T08:05:40.864Z,21.1
2017-07-17T08:06:48.951Z,21.1
2017-07-17T08:07:57.037Z,21.0
2017-07-17T08:09:05.127Z,21.1
2017-07-17T08:10:13.217Z,21.0
2017-07-17T08:11:21.303Z,21.0
2017-07-17T08:12:29.391Z,21.1
2017-07-17T08:13:37.479Z,21.1
2017-07-17T08:14:45.573Z,21.2
2017-07-17T08:15:53.660Z,21.2
2017-07-17T08:17:01.749Z,21.2
2017-07-17T08:18:09.835Z,21.2
2017-07-17T08:19:17.923Z,21.1
2017-07-17T08:20:26.012Z,21.2
2017-07-17T08:21:34.118Z,21.2
2017-07-17T08:22:42.186Z,21.2
2017-07-17T08:23:50.271Z,21.2
2017-07-17T08:24:58.361Z,21.2
2017-07-17T08:26:06.451Z,21.2
2017-07-17T08:27:14.537Z,21.1
2017-07-17T08:28:22.630Z,21.3
2017-07-17T08:29:30.718Z,21.3
2017-07-17T08:30:38.806Z,21.2
2017-07-17T08:31:46.891Z,21.3
2017-07-17T08:32:54.979Z,21.3
2017-07-17T08:34:03.067Z,21.2
2017-07-17T08:35:11.155Z,21.2
2017-07-17T08:36:19.245Z,21.3
2017-07-17T08:37:27.332Z,21.3
2017-07-17T08:38:35.452Z,21.3
2017-07-17T08:39:43.509Z,21.3
2017-07-17T08:40:51.595Z,21.3
2017-07-17T08:41:59.681Z,21.3
2017-07-17T08:43:07.770Z,21.3
2017-07-17T08:44:15.858Z,21.3
2017-07-17T08:45:23.947Z,21.3
2017-07-17T08:46:32.035Z,21.4
2017-07-17T08:47:40.123Z,21.3
2017-07-17T08:48:48.210Z,21.4
2017-07-17T08:49:56.301Z,21.4
2017-07-17T08:51:04.387Z,21.4
2017-07-17T08:52:12.475Z,21.4
2017-07-17T08:53:20.567Z,21.4
2017-07-17T08:54:28.657Z,21.4
2017-07-17T08:55:36.745Z,21.4
2017-07-17T08:56:44.832Z,21.4
2017-07-17T08:57:52.920Z,21.4
2017-07-17T08:59:01.006Z,21.5
2017-07-17T09:00:09.094Z,21.4
2017-07-17T09:01:17.181Z,21.5
2017-07-17T09:02:25.270Z,21.4
2017-07-17T09:03:33.360Z,21.4
2017-07-17T09:04:41.447Z,21.4
2017-07-17T09:05:49.535Z,21.5
2017-07-17T09:06:57.623Z,21.5
2017-07-17T09:08:05.803Z,21.5
2017-07-17T09:09:13.798Z,21.6
2017-07-17T09:10:21.885Z,21.5
2017-07-17T09:11:29.997Z,21.5
2017-07-17T09:12:38.060Z,21.5
2017-07-17T09:13:46.174Z,21.5
2017-07-17T09:14:54.239Z,21.6
2017-07-17T09:16:02.326Z,21.6
2017-07-17T09:17:10.415Z,21.7
2017-07-17T09:18:18.503Z,21.6
2017-07-17T09:19:26.589Z,21.6
2017-07-17T09:20:34.703Z,21.6
2017-07-17T09:21:42.769Z,21.7
2017-07-17T09:22:50.858Z,21.6
2017-07-17T09:23:58.945Z,21.6
2017-07-17T09:25:07.035Z,21.6
2017-07-17T09:26:15.126Z,21.6
2017-07-17T09:27:23.211Z,21.6
2017-07-17T09:28:31.299Z,21.7
2017-07-17T09:29:39.410Z,21.6
2017-07-17T09:30:47.478Z,21.7
2017-07-17T09:31:55.563Z,21.6
2017-07-17T09:33:03.652Z,21.7
2017-07-17T09:34:11.742Z,21.7
2017-07-17T09:35:19.828Z,21.7
2017-07-17T09:36:27.918Z,21.7
2017-07-17T09:37:36.002Z,21.7
2017-07-17T09:38:44.090Z,21.7
2017-07-17T09:39:52.178Z,21.8
2017-07-17T09:41:00.267Z,21.8
2017-07-17T09:42:08.355Z,21.7
2017-07-17T09:43:16.445Z,21.7
2017-07-17T09:44:24.534Z,21.7
2017-07-17T09:45:32.622Z,21.7
2017-07-17T09:46:40.716Z,21.7
2017-07-17T09:47:48.796Z,21.8
2017-07-17T09:48:56.885Z,21.7
2017-07-17T09:50:04.972Z,21.7
2017-07-17T09:51:13.060Z,21.7
2017-07-17T09:52:21.148Z,21.8
2017-07-17T09:53:29.238Z,21.8
2017-07-17T09:54:37.392Z,21.7
2017-07-17T09:55:45.412Z,21.8
2017-07-17T09:56:53.500Z,21.8
2017-07-17T09:58:01.587Z,21.8
2017-07-17T09:59:09.676Z,21.8
2017-07-17T10:00:17.763Z,21.9
2017-07-17T10:01:25.852Z,21.8
2017-07-17T10:02:33.940Z,21.8
2017-07-17T10:03:42.028Z,21.9
2017-07-17T10:04:50.117Z,21.8
2017-07-17T10:05:58.206Z,21.9
2017-07-17T10:07:06.316Z,21.9
2017-07-17T10:08:14.379Z,21.9
2017-07-17T10:09:22.468Z,21.9
2017-07-17T10:10:30.557Z,21.9
2017-07-17T10:11:38.682Z,21.9
2017-07-17T10:12:46.730Z,21.9
2017-07-17T10:13:54.823Z,22.0
2017-07-17T10:15:02.908Z,21.9
2017-07-17T10:16:10.999Z,21.9
2017-07-17T10:17:19.088Z,21.9
2017-07-17T10:18:27.176Z,21.9
2017-07-17T10:19:35.270Z,21.9
2017-07-17T10:20:43.359Z,22.0
2017-07-17T10:21:51.447Z,22.0
2017-07-17T10:22:59.537Z,21.9
2017-07-17T10:24:07.624Z,21.9
2017-07-17T10:25:15.710Z,22.1
2017-07-17T10:26:23.807Z,22.0
2017-07-17T10:27:31.888Z,22.0
2017-07-17T10:28:39.978Z,22.0
2017-07-17T10:29:48.065Z,22.0
2017-07-17T10:30:56.154Z,22.0
2017-07-17T10:32:04.242Z,22.1
2017-07-17T10:33:12.330Z,22.1
2017-07-17T10:34:20.418Z,22.1
2017-07-17T10:35:28.506Z,22.1
2017-07-17T10:36:36.594Z,22.1
2017-07-17T10:37:44.683Z,22.0
2017-07-17T10:38:52.772Z,22.1
2017-07-17T10:40:00.860Z,22.1
2017-07-17T10:41:08.949Z,22.1
2017-07-17T10:42:17.036Z,22.1
2017-07-17T10:43:25.124Z,22.1
2017-07-17T10:44:33.211Z,22.2
2017-07-17T10:45:41.305Z,22.2
2017-07-17T10:46:49.395Z,22.1
2017-07-17T10:47:57.482Z,22.1
2017-07-17T10:49:05.580Z,22.1
2017-07-17T10:50:13.661Z,22.1
2017-07-17T10:51:21.749Z,22.2
2017-07-17T10:52:29.836Z,22.2
2017-07-17T10:53:37.923Z,22.1
2017-07-17T10:54:46.036Z,22.2
2017-07-17T10:55:54.100Z,22.1
2017-07-17T10:57:02.189Z,22.2
2017-07-17T10:58:10.278Z,22.2
2017-07-17T10:59:18.366Z,22.2
2017-07-17T11:00:26.456Z,22.2
2017-07-17T11:01:34.545Z,22.2
2017-07-17T11:02:42.632Z,22.2
2017-07-17T11:03:50.717Z,22.2
2017-07-17T11:04:58.807Z,22.3
2017-07-17T11:06:06.897Z,22.3
2017-07-17T11:07:14.985Z,22.3
2017-07-17T11:08:23.073Z,22.2
2017-07-17T11:09:31.187Z,22.3
2017-07-17T11:10:39.252Z,22.3
2017-07-17T11:11:47.396Z,22.3
2017-07-17T11:12:55.429Z,22.3
2017-07-17T11:14:03.516Z,22.3
2017-07-17T11:15:11.605Z,22.3
2017-07-17T11:16:19.691Z,22.3
2017-07-17T11:17:27.781Z,22.3
2017-07-17T11:18:35.870Z,22.3
2017-07-17T11:19:43.958Z,22.3
2017-07-17T11:20:52.047Z,22.3
2017-07-17T11:22:00.135Z,22.3
2017-07-17T11:23:08.223Z,22.4
2017-07-17T11:24:16.308Z,22.4
2017-07-17T11:25:24.398Z,22.3
2017-07-17T11:26:32.485Z,22.3
2017-07-17T11:27:40.577Z,22.4
2017-07-17T11:28:48.664Z,22.4
2017-07-17T11:29:56.754Z,22.3
2017-07-17T11:31:04.848Z,22.4
2017-07-17T11:32:12.938Z,22.4
2017-07-17T11:33:21.026Z,22.4
2017-07-17T11:34:29.116Z,22.4
2017-07-17T11:35:37.203Z,22.4
2017-07-17T11:36:45.326Z,22.4
2017-07-17T11:37:53.381Z,22.4
2017-07-17T11:39:01.490Z,22.4
2017-07-17T11:40:09.564Z,22.5
2017-07-17T11:41:17.649Z,22.5
2017-07-17T11:42:25.737Z,22.5
2017-07-17T11:43:33.825Z,22.5
2017-07-17T11:44:41.916Z,22.5
2017-07-17T11:45:50.004Z,22.5
2017-07-17T11:57:10.893Z,22.5
2017-07-17T11:58:18.982Z,22.6
2017-07-17T11:59:27.068Z,22.6
2017-07-17T12:00:35.159Z,22.5
2017-07-17T12:01:43.246Z,22.5
2017-07-17T12:02:51.342Z,22.6
2017-07-17T12:03:59.425Z,22.5
2017-07-17T12:06:15.604Z,22.6
2017-07-17T12:09:39.865Z,22.6
2017-07-17T12:10:47.954Z,22.6
2017-07-17T12:11:56.053Z,22.6
2017-07-17T12:13:04.133Z,22.6
2017-07-17T12:14:12.223Z,22.6
2017-07-17T12:15:20.311Z,22.6
2017-07-17T12:16:28.400Z,22.6
2017-07-17T12:17:36.489Z,22.6
2017-07-17T12:18:44.576Z,22.6
2017-07-17T12:19:52.666Z,22.6
2017-07-17T12:21:00.754Z,22.6
2017-07-17T12:22:08.847Z,22.6
2017-07-17T12:23:16.931Z,22.6
2017-07-17T12:24:25.019Z,22.6
2017-07-17T12:25:33.110Z,22.7
2017-07-17T12:26:41.195Z,22.6
2017-07-17T12:27:49.287Z,22.7
2017-07-17T12:28:57.373Z,22.6
2017-07-17T12:30:05.463Z,22.6
2017-07-17T12:31:13.549Z,22.6
2017-07-17T12:32:21.640Z,22.7
2017-07-17T12:33:29.728Z,22.6
2017-07-17T12:34:37.818Z,22.6
2017-07-17T12:35:45.905Z,22.6
2017-07-17T12:36:54.023Z,22.6
2017-07-17T12:38:02.082Z,22.6
2017-07-17T12:39:10.176Z,22.6
2017-07-17T12:40:18.267Z,22.6
2017-07-17T12:41:26.355Z,22.6
2017-07-17T12:42:34.445Z,22.7
2017-07-17T12:43:42.535Z,22.6
2017-07-17T12:44:50.624Z,22.7
2017-07-17T12:45:58.712Z,22.7
2017-07-17T12:47:06.797Z,22.6
2017-07-17T12:48:14.886Z,22.6
2017-07-17T12:49:22.976Z,22.6
2017-07-17T12:50:31.064Z,22.7
2017-07-17T12:51:39.153Z,22.6
2017-07-17T12:52:47.242Z,22.8
2017-07-17T12:53:55.338Z,22.7
2017-07-17T12:55:03.423Z,22.6
2017-07-17T12:56:11.518Z,22.6
2017-07-17T12:57:19.606Z,22.6
2017-07-17T12:58:27.697Z,22.6
2017-07-17T12:59:35.783Z,22.8
2017-07-17T13:00:43.872Z,22.7
2017-07-17T13:01:51.963Z,22.7
2017-07-17T13:03:00.053Z,22.7
2017-07-17T13:04:08.137Z,22.8
2017-07-17T13:05:16.233Z,22.7
2017-07-17T13:06:24.322Z,22.8
2017-07-17T13:07:32.411Z,22.8
2017-07-17T13:08:40.502Z,22.7
2017-07-17T13:09:48.592Z,22.7
2017-07-17T13:10:56.677Z,22.8
2017-07-17T13:12:04.765Z,22.7
2017-07-17T13:13:12.855Z,22.8
2017-07-17T13:14:20.942Z,22.8
2017-07-17T13:15:29.029Z,22.7
2017-07-17T13:16:37.123Z,22.8
2017-07-17T13:17:45.211Z,22.7
2017-07-17T13:18:53.305Z,22.8
2017-07-17T13:20:01.394Z,22.9
2017-07-17T13:21:09.480Z,22.7
2017-07-17T13:22:17.569Z,22.8
2017-07-17T13:23:25.657Z,22.7
2017-07-17T13:24:33.748Z,22.8
2017-07-17T13:25:41.834Z,22.7
2017-07-17T13:26:49.923Z,22.7
2017-07-17T13:27:58.016Z,22.8
2017-07-17T13:29:06.112Z,22.8
2017-07-17T13:30:14.191Z,22.8
2017-07-17T13:31:22.279Z,22.8
2017-07-17T13:32:30.369Z,22.8
2017-07-17T13:33:38.456Z,22.8
2017-07-17T13:34:46.547Z,22.8
2017-07-17T13:35:54.636Z,22.8
2017-07-17T13:37:02.733Z,22.9
2017-07-17T13:38:10.811Z,22.9
2017-07-17T13:39:18.901Z,22.8
2017-07-17T13:40:26.992Z,22.8
2017-07-17T13:41:35.079Z,22.9
2017-07-17T13:42:43.169Z,22.9
2017-07-17T13:43:51.256Z,22.8
2017-07-17T13:44:59.347Z,22.8
2017-07-17T13:46:07.436Z,22.8
2017-07-17T13:47:15.526Z,22.9
2017-07-17T13:48:23.612Z,22.9
2017-07-17T13:49:31.708Z,22.9
2017-07-17T13:50:39.799Z,22.8
2017-07-17T13:51:47.885Z,22.9
2017-07-17T13:52:55.974Z,22.9
2017-07-17T13:54:04.067Z,22.9
2017-07-17T13:55:12.154Z,22.8
2017-07-17T13:56:20.251Z,22.8
2017-07-17T13:57:28.333Z,22.9
2017-07-17T13:58:36.421Z,22.8
2017-07-17T13:59:44.507Z,22.8
2017-07-17T14:00:52.597Z,22.8
2017-07-17T14:02:00.685Z,22.9
2017-07-17T14:03:08.773Z,22.8
2017-07-17T14:04:16.861Z,22.8
2017-07-17T14:05:24.951Z,22.9
2017-07-17T14:06:33.040Z,22.9
2017-07-17T14:07:41.130Z,22.8
2017-07-17T14:08:49.218Z,22.9
2017-07-17T14:09:57.305Z,22.9
2017-07-17T14:11:05.394Z,22.8
2017-07-17T14:12:13.484Z,22.9
2017-07-17T14:13:21.571Z,22.9
2017-07-17T14:14:29.660Z,22.8
2017-07-17T14:15:37.752Z,22.9
2017-07-17T14:16:45.842Z,22.9
2017-07-17T14:17:53.930Z,22.9
2017-07-17T14:19:02.017Z,22.9
2017-07-17T14:20:10.107Z,22.9
2017-07-17T14:21:18.195Z,23.0
2017-07-17T14:22:26.282Z,22.9
2017-07-17T14:23:34.375Z,22.9
2017-07-17T14:24:42.460Z,23.0
2017-07-17T14:25:50.552Z,22.9
2017-07-17T14:26:58.640Z,22.9
2017-07-17T14:28:06.729Z,23.0
2017-07-17T14:29:14.817Z,22.9
2017-07-17T14:30:22.906Z,23.0
2017-07-17T14:31:30.998Z,23.0
2017-07-17T14:32:39.082Z,23.0
2017-07-17T14:33:47.181Z,23.1
2017-07-17T14:34:55.268Z,22.9
2017-07-17T14:36:03.362Z,22.9
2017-07-17T14:37:11.444Z,22.9
2017-07-17T14:38:19.534Z,23.0
2017-07-17T14:39:27.627Z,22.9
2017-07-17T14:40:35.717Z,22.9
2017-07-17T14:41:43.804Z,22.9
2017-07-17T14:42:51.898Z,23.0
2017-07-17T14:43:59.986Z,22.9
2017-07-17T14:45:08.075Z,22.9
2017-07-17T14:46:16.163Z,22.9
2017-07-17T14:47:24.276Z,23.0
2017-07-17T14:48:32.341Z,22.9
2017-07-17T14:49:40.486Z,23.0
2017-07-17T14:50:48.516Z,23.0
2017-07-17T14:51:56.610Z,23.0
2017-07-17T14:53:04.696Z,23.0
2017-07-17T14:54:12.783Z,23.0
2017-07-17T14:55:20.875Z,23.1
2017-07-17T14:56:28.962Z,23.1
2017-07-17T14:57:37.048Z,23.1
2017-07-17T14:58:45.139Z,23.1
2017-07-17T14:59:53.226Z,23.1
2017-07-17T15:01:01.317Z,23.1
2017-07-17T15:02:09.407Z,23.1
2017-07-17T15:03:17.495Z,23.1
2017-07-17T15:04:25.588Z,23.1
2017-07-17T15:05:33.671Z,23.1
2017-07-17T15:06:41.760Z,23.0
2017-07-17T15:07:49.849Z,23.1
2017-07-17T15:08:57.938Z,23.1
2017-07-17T15:10:06.029Z,23.1
2017-07-17T15:11:14.141Z,23.1
2017-07-17T15:12:22.207Z,23.1
2017-07-17T15:13:30.298Z,23.1
2017-07-17T15:14:38.384Z,23.1
2017-07-17T15:15:46.474Z,23.1
2017-07-17T15:16:54.561Z,23.1
2017-07-17T15:18:02.651Z,23.1
2017-07-17T15:19:10.736Z,23.1